sensor_id;sensor_type;location;lat;lon;timestamp;temperature;humidity
15450;DHT22;7826;49.784;9.934;2022-09-21T00:01:12;6.80;1.00
15450;DHT22;7826;49.784;9.934;2022-09-21T00:03:38;6.80;1.00
15450;DHT22;7826;49.784;9.934;2022-09-21T00:06:09;6.70;1.00
15450;DHT22;7826;49.784;9.934;2022-09-21T00:08:35;6.80;1.00
15450;DHT22;7826;49.784;9.934;2022-09-21T00:11:03;6.80;1.00
15450;DHT22;7826;49.784;9.934;2022-09-21T00:13:32;6.80;1.00
15450;DHT22;7826;49.784;9.934;2022-09-21T00:15:58;6.80;1.00
15450;DHT22;7826;49.784;9.934;2022-09-21T00:18:25;6.80;1.00
15450;DHT22;7826;49.784;9.934;2022-09-21T00:20:51;6.80;1.00
15450;DHT22;7826;49.784;9.934;2022-09-21T00:23:19;6.80;1.00
15450;DHT22;7826;49.784;9.934;2022-09-21T00:25:45;6.70;1.00
15450;DHT22;7826;49.784;9.934;2022-09-21T00:28:12;6.70;1.00
15450;DHT22;7826;49.784;9.934;2022-09-21T00:30:38;6.70;1.00
15450;DHT22;7826;49.784;9.934;2022-09-21T00:33:04;6.80;1.00
15450;DHT22;7826;49.784;9.934;2022-09-21T00:35:32;6.70;1.00
15450;DHT22;7826;49.784;9.934;2022-09-21T00:38:02;6.70;1.00
15450;DHT22;7826;49.784;9.934;2022-09-21T00:40:29;6.60;1.00
15450;DHT22;7826;49.784;9.934;2022-09-21T00:43:12;6.60;1.00
15450;DHT22;7826;49.784;9.934;2022-09-21T00:45:39;6.60;1.00
15450;DHT22;7826;49.784;9.934;2022-09-21T00:48:06;6.70;1.00
15450;DHT22;7826;49.784;9.934;2022-09-21T00:50:32;6.70;1.00
15450;DHT22;7826;49.784;9.934;2022-09-21T00:53:00;6.70;1.00
15450;DHT22;7826;49.784;9.934;2022-09-21T00:55:39;6.70;1.00
15450;DHT22;7826;49.784;9.934;2022-09-21T00:58:13;6.60;1.00
15450;DHT22;7826;49.784;9.934;2022-09-21T01:00:41;6.70;1.00
15450;DHT22;7826;49.784;9.934;2022-09-21T01:03:10;6.70;1.00
15450;DHT22;7826;49.784;9.934;2022-09-21T01:05:37;6.70;1.00
15450;DHT22;7826;49.784;9.934;2022-09-21T01:08:05;6.70;1.00
15450;DHT22;7826;49.784;9.934;2022-09-21T01:16:15;6.70;1.00
15450;DHT22;7826;49.784;9.934;2022-09-21T01:21:32;6.70;1.00
15450;DHT22;7826;49.784;9.934;2022-09-21T01:26:31;6.70;1.00
15450;DHT22;7826;49.784;9.934;2022-09-21T01:35:08;6.70;1.00
15450;DHT22;7826;49.784;9.934;2022-09-21T01:37:51;6.70;1.00
15450;DHT22;7826;49.784;9.934;2022-09-21T01:40:30;6.70;1.00
15450;DHT22;7826;49.784;9.934;2022-09-21T01:42:58;6.60;1.00
15450;DHT22;7826;49.784;9.934;2022-09-21T01:45:36;6.60;1.00
15450;DHT22;7826;49.784;9.934;2022-09-21T01:48:06;6.60;1.00
15450;DHT22;7826;49.784;9.934;2022-09-21T01:50:53;6.60;1.00
15450;DHT22;7826;49.784;9.934;2022-09-21T01:53:30;6.60;1.00
15450;DHT22;7826;49.784;9.934;2022-09-21T01:56:04;6.60;1.00
15450;DHT22;7826;49.784;9.934;2022-09-21T01:59:01;6.70;1.00
15450;DHT22;7826;49.784;9.934;2022-09-21T02:01:31;6.70;1.00
15450;DHT22;7826;49.784;9.934;2022-09-21T02:04:04;6.70;1.00
15450;DHT22;7826;49.784;9.934;2022-09-21T02:06:37;6.70;1.00
15450;DHT22;7826;49.784;9.934;2022-09-21T02:09:04;6.80;1.00
15450;DHT22;7826;49.784;9.934;2022-09-21T02:11:31;6.80;1.00
15450;DHT22;7826;49.784;9.934;2022-09-21T02:13:57;6.80;1.00
15450;DHT22;7826;49.784;9.934;2022-09-21T02:16:37;6.80;1.00
15450;DHT22;7826;49.784;9.934;2022-09-21T02:19:24;6.90;1.00
15450;DHT22;7826;49.784;9.934;2022-09-21T02:24:51;6.90;1.00
15450;DHT22;7826;49.784;9.934;2022-09-21T02:35:34;7.00;29.40
15450;DHT22;7826;49.784;9.934;2022-09-21T02:43:26;7.00;1.00
15450;DHT22;7826;49.784;9.934;2022-09-21T02:46:42;7.00;1.00
15450;DHT22;7826;49.784;9.934;2022-09-21T02:48:53;6.90;1.00
15450;DHT22;7826;49.784;9.934;2022-09-21T02:51:27;6.90;1.00
15450;DHT22;7826;49.784;9.934;2022-09-21T02:53:55;6.80;1.00
15450;DHT22;7826;49.784;9.934;2022-09-21T02:56:22;6.80;1.00
15450;DHT22;7826;49.784;9.934;2022-09-21T02:58:53;6.80;1.00
15450;DHT22;7826;49.784;9.934;2022-09-21T03:01:21;6.80;1.00
15450;DHT22;7826;49.784;9.934;2022-09-21T03:03:48;6.90;51.10
15450;DHT22;7826;49.784;9.934;2022-09-21T03:06:14;6.90;20.90
15450;DHT22;7826;49.784;9.934;2022-09-21T03:08:41;6.90;24.50
15450;DHT22;7826;49.784;9.934;2022-09-21T03:11:07;6.90;36.20
15450;DHT22;7826;49.784;9.934;2022-09-21T03:13:34;6.90;13.10
15450;DHT22;7826;49.784;9.934;2022-09-21T03:16:04;6.80;1.00
15450;DHT22;7826;49.784;9.934;2022-09-21T03:18:30;6.90;27.70
15450;DHT22;7826;49.784;9.934;2022-09-21T03:20:57;6.90;1.00
15450;DHT22;7826;49.784;9.934;2022-09-21T03:23:23;6.90;1.00
15450;DHT22;7826;49.784;9.934;2022-09-21T03:25:50;6.90;1.00
15450;DHT22;7826;49.784;9.934;2022-09-21T03:28:20;6.90;1.00
15450;DHT22;7826;49.784;9.934;2022-09-21T03:30:50;6.80;1.00
15450;DHT22;7826;49.784;9.934;2022-09-21T03:33:18;6.70;1.00
15450;DHT22;7826;49.784;9.934;2022-09-21T03:35:46;6.80;1.00
15450;DHT22;7826;49.784;9.934;2022-09-21T03:38:13;6.70;1.00
15450;DHT22;7826;49.784;9.934;2022-09-21T03:40:40;6.70;1.00
15450;DHT22;7826;49.784;9.934;2022-09-21T03:43:10;6.70;1.00
15450;DHT22;7826;49.784;9.934;2022-09-21T03:45:36;6.60;1.00
15450;DHT22;7826;49.784;9.934;2022-09-21T03:48:03;6.60;1.00
15450;DHT22;7826;49.784;9.934;2022-09-21T03:50:29;6.60;1.00
15450;DHT22;7826;49.784;9.934;2022-09-21T03:52:55;6.60;1.00
15450;DHT22;7826;49.784;9.934;2022-09-21T03:55:22;6.60;1.00
15450;DHT22;7826;49.784;9.934;2022-09-21T03:57:49;6.60;1.00
15450;DHT22;7826;49.784;9.934;2022-09-21T04:00:16;6.60;1.00
15450;DHT22;7826;49.784;9.934;2022-09-21T04:02:42;6.60;1.00
15450;DHT22;7826;49.784;9.934;2022-09-21T04:05:11;6.70;1.00
15450;DHT22;7826;49.784;9.934;2022-09-21T04:07:40;6.70;1.00
15450;DHT22;7826;49.784;9.934;2022-09-21T04:10:09;6.60;1.00
15450;DHT22;7826;49.784;9.934;2022-09-21T04:12:40;6.70;1.00
15450;DHT22;7826;49.784;9.934;2022-09-21T04:15:11;6.70;1.00
15450;DHT22;7826;49.784;9.934;2022-09-21T04:17:37;6.70;1.00
15450;DHT22;7826;49.784;9.934;2022-09-21T04:20:05;6.60;1.00
15450;DHT22;7826;49.784;9.934;2022-09-21T04:22:32;6.60;1.00
15450;DHT22;7826;49.784;9.934;2022-09-21T04:24:58;6.60;1.00
15450;DHT22;7826;49.784;9.934;2022-09-21T04:27:26;6.60;1.00
15450;DHT22;7826;49.784;9.934;2022-09-21T04:29:52;6.60;39.90
15450;DHT22;7826;49.784;9.934;2022-09-21T04:32:19;6.60;95.10
15450;DHT22;7826;49.784;9.934;2022-09-21T04:34:45;6.60;41.90
15450;DHT22;7826;49.784;9.934;2022-09-21T04:37:12;6.60;70.60
15450;DHT22;7826;49.784;9.934;2022-09-21T04:39:39;6.60;19.30
15450;DHT22;7826;49.784;9.934;2022-09-21T04:42:06;6.50;14.70
15450;DHT22;7826;49.784;9.934;2022-09-21T04:44:32;6.60;99.90
15450;DHT22;7826;49.784;9.934;2022-09-21T04:46:58;6.60;61.50
15450;DHT22;7826;49.784;9.934;2022-09-21T04:49:25;6.60;92.10
15450;DHT22;7826;49.784;9.934;2022-09-21T04:51:51;6.60;76.40
15450;DHT22;7826;49.784;9.934;2022-09-21T04:54:18;6.60;99.90
15450;DHT22;7826;49.784;9.934;2022-09-21T04:56:44;6.60;99.90
15450;DHT22;7826;49.784;9.934;2022-09-21T04:59:10;6.60;67.10
15450;DHT22;7826;49.784;9.934;2022-09-21T05:01:37;6.50;22.90
15450;DHT22;7826;49.784;9.934;2022-09-21T05:04:03;6.50;86.10
15450;DHT22;7826;49.784;9.934;2022-09-21T05:06:31;6.50;39.40
15450;DHT22;7826;49.784;9.934;2022-09-21T05:08:58;6.50;46.60
15450;DHT22;7826;49.784;9.934;2022-09-21T05:11:43;6.50;44.80
15450;DHT22;7826;49.784;9.934;2022-09-21T05:14:10;6.50;57.40
15450;DHT22;7826;49.784;9.934;2022-09-21T05:16:37;6.50;12.40
15450;DHT22;7826;49.784;9.934;2022-09-21T05:19:03;6.50;23.40
15450;DHT22;7826;49.784;9.934;2022-09-21T05:21:30;6.50;49.00
15450;DHT22;7826;49.784;9.934;2022-09-21T05:23:57;6.50;79.10
15450;DHT22;7826;49.784;9.934;2022-09-21T05:26:23;6.60;59.30
15450;DHT22;7826;49.784;9.934;2022-09-21T05:28:50;6.60;54.30
15450;DHT22;7826;49.784;9.934;2022-09-21T05:39:56;6.60;43.60
15450;DHT22;7826;49.784;9.934;2022-09-21T05:42:23;6.60;98.60
15450;DHT22;7826;49.784;9.934;2022-09-21T05:44:50;6.70;94.60
15450;DHT22;7826;49.784;9.934;2022-09-21T05:47:26;6.70;97.40
15450;DHT22;7826;49.784;9.934;2022-09-21T05:55:45;6.60;5.90
15450;DHT22;7826;49.784;9.934;2022-09-21T06:03:35;6.70;1.00
15450;DHT22;7826;49.784;9.934;2022-09-21T06:06:02;6.80;1.00
15450;DHT22;7826;49.784;9.934;2022-09-21T06:08:28;6.80;1.00
15450;DHT22;7826;49.784;9.934;2022-09-21T06:10:55;6.80;1.00
15450;DHT22;7826;49.784;9.934;2022-09-21T06:13:22;6.80;1.00
15450;DHT22;7826;49.784;9.934;2022-09-21T06:15:48;6.90;1.00
15450;DHT22;7826;49.784;9.934;2022-09-21T06:18:14;6.90;1.00
15450;DHT22;7826;49.784;9.934;2022-09-21T06:20:41;6.90;1.00
15450;DHT22;7826;49.784;9.934;2022-09-21T06:23:10;7.00;1.00
15450;DHT22;7826;49.784;9.934;2022-09-21T06:25:37;7.00;1.00
15450;DHT22;7826;49.784;9.934;2022-09-21T06:28:10;7.10;1.00
15450;DHT22;7826;49.784;9.934;2022-09-21T06:30:37;7.00;1.00
15450;DHT22;7826;49.784;9.934;2022-09-21T06:33:05;7.10;1.00
15450;DHT22;7826;49.784;9.934;2022-09-21T06:35:34;7.10;1.00
15450;DHT22;7826;49.784;9.934;2022-09-21T06:38:03;7.10;1.00
15450;DHT22;7826;49.784;9.934;2022-09-21T06:40:30;7.20;1.00
15450;DHT22;7826;49.784;9.934;2022-09-21T06:42:58;7.20;1.00
15450;DHT22;7826;49.784;9.934;2022-09-21T06:45:26;7.20;1.00
15450;DHT22;7826;49.784;9.934;2022-09-21T06:47:53;7.30;1.00
15450;DHT22;7826;49.784;9.934;2022-09-21T06:50:20;7.20;1.00
15450;DHT22;7826;49.784;9.934;2022-09-21T06:52:46;7.30;1.00
15450;DHT22;7826;49.784;9.934;2022-09-21T06:55:13;7.30;1.00
15450;DHT22;7826;49.784;9.934;2022-09-21T06:57:40;7.40;1.00
15450;DHT22;7826;49.784;9.934;2022-09-21T07:00:08;7.40;1.00
15450;DHT22;7826;49.784;9.934;2022-09-21T07:02:35;7.50;1.00
15450;DHT22;7826;49.784;9.934;2022-09-21T07:05:02;7.50;1.00
15450;DHT22;7826;49.784;9.934;2022-09-21T07:07:29;7.60;1.00
15450;DHT22;7826;49.784;9.934;2022-09-21T07:09:57;7.60;1.00
15450;DHT22;7826;49.784;9.934;2022-09-21T07:12:24;7.80;1.00
15450;DHT22;7826;49.784;9.934;2022-09-21T07:14:51;7.90;1.00
15450;DHT22;7826;49.784;9.934;2022-09-21T07:17:17;7.90;99.90
15450;DHT22;7826;49.784;9.934;2022-09-21T07:19:44;8.00;99.90
15450;DHT22;7826;49.784;9.934;2022-09-21T07:22:10;8.00;99.90
15450;DHT22;7826;49.784;9.934;2022-09-21T07:24:36;8.00;99.90
15450;DHT22;7826;49.784;9.934;2022-09-21T07:27:03;7.90;99.90
15450;DHT22;7826;49.784;9.934;2022-09-21T07:29:29;8.00;99.90
15450;DHT22;7826;49.784;9.934;2022-09-21T07:31:56;8.00;99.90
15450;DHT22;7826;49.784;9.934;2022-09-21T07:34:22;8.00;99.90
15450;DHT22;7826;49.784;9.934;2022-09-21T07:36:48;8.10;99.90
15450;DHT22;7826;49.784;9.934;2022-09-21T07:39:15;8.10;99.90
15450;DHT22;7826;49.784;9.934;2022-09-21T07:41:41;8.10;51.30
15450;DHT22;7826;49.784;9.934;2022-09-21T07:44:07;8.20;1.00
15450;DHT22;7826;49.784;9.934;2022-09-21T07:46:33;8.30;87.20
15450;DHT22;7826;49.784;9.934;2022-09-21T07:49:02;8.40;1.00
15450;DHT22;7826;49.784;9.934;2022-09-21T07:51:30;8.40;1.00
15450;DHT22;7826;49.784;9.934;2022-09-21T07:53:57;8.50;1.00
15450;DHT22;7826;49.784;9.934;2022-09-21T07:56:24;8.70;1.00
15450;DHT22;7826;49.784;9.934;2022-09-21T07:58:50;8.70;99.90
15450;DHT22;7826;49.784;9.934;2022-09-21T08:01:33;8.60;99.90
15450;DHT22;7826;49.784;9.934;2022-09-21T08:04:00;8.60;99.90
15450;DHT22;7826;49.784;9.934;2022-09-21T08:06:30;8.70;99.90
15450;DHT22;7826;49.784;9.934;2022-09-21T08:08:59;8.70;99.90
15450;DHT22;7826;49.784;9.934;2022-09-21T08:11:26;8.80;88.60
15450;DHT22;7826;49.784;9.934;2022-09-21T08:13:55;8.80;15.70
15450;DHT22;7826;49.784;9.934;2022-09-21T08:16:22;8.90;1.00
15450;DHT22;7826;49.784;9.934;2022-09-21T08:18:48;8.90;1.00
15450;DHT22;7826;49.784;9.934;2022-09-21T08:21:17;9.00;1.90
15450;DHT22;7826;49.784;9.934;2022-09-21T08:23:43;9.10;1.00
15450;DHT22;7826;49.784;9.934;2022-09-21T08:26:12;9.10;1.00
15450;DHT22;7826;49.784;9.934;2022-09-21T08:28:45;9.10;1.00
15450;DHT22;7826;49.784;9.934;2022-09-21T08:31:16;9.10;1.00
15450;DHT22;7826;49.784;9.934;2022-09-21T08:33:45;9.30;1.00
15450;DHT22;7826;49.784;9.934;2022-09-21T08:36:11;9.40;1.00
15450;DHT22;7826;49.784;9.934;2022-09-21T08:38:38;9.60;1.00
15450;DHT22;7826;49.784;9.934;2022-09-21T08:43:46;9.80;99.90
15450;DHT22;7826;49.784;9.934;2022-09-21T08:46:19;9.90;99.90
15450;DHT22;7826;49.784;9.934;2022-09-21T08:48:52;10.10;1.00
15450;DHT22;7826;49.784;9.934;2022-09-21T08:51:25;10.10;1.00
15450;DHT22;7826;49.784;9.934;2022-09-21T08:53:56;10.30;1.00
15450;DHT22;7826;49.784;9.934;2022-09-21T08:56:24;10.50;99.90
15450;DHT22;7826;49.784;9.934;2022-09-21T08:58:52;10.70;99.90
15450;DHT22;7826;49.784;9.934;2022-09-21T09:10:11;11.20;99.90
15450;DHT22;7826;49.784;9.934;2022-09-21T09:18:22;13.30;1.00
15450;DHT22;7826;49.784;9.934;2022-09-21T09:20:59;14.20;99.90
15450;DHT22;7826;49.784;9.934;2022-09-21T09:23:40;14.30;99.90
15450;DHT22;7826;49.784;9.934;2022-09-21T09:26:15;14.10;99.90
15450;DHT22;7826;49.784;9.934;2022-09-21T09:31:26;14.20;99.90
15450;DHT22;7826;49.784;9.934;2022-09-21T09:34:17;14.00;99.90
15450;DHT22;7826;49.784;9.934;2022-09-21T09:36:49;14.10;99.90
15450;DHT22;7826;49.784;9.934;2022-09-21T09:39:17;13.80;99.90
15450;DHT22;7826;49.784;9.934;2022-09-21T09:45:17;13.80;99.90
15450;DHT22;7826;49.784;9.934;2022-09-21T09:50:39;13.60;99.90
15450;DHT22;7826;49.784;9.934;2022-09-21T09:53:25;13.50;99.90
15450;DHT22;7826;49.784;9.934;2022-09-21T09:55:54;13.70;99.90
15450;DHT22;7826;49.784;9.934;2022-09-21T10:00:53;13.60;99.90
15450;DHT22;7826;49.784;9.934;2022-09-21T10:03:23;13.50;99.90
15450;DHT22;7826;49.784;9.934;2022-09-21T10:05:51;13.40;99.90
15450;DHT22;7826;49.784;9.934;2022-09-21T10:08:40;13.20;99.90
15450;DHT22;7826;49.784;9.934;2022-09-21T10:11:13;13.00;99.90
15450;DHT22;7826;49.784;9.934;2022-09-21T10:13:45;12.90;99.90
15450;DHT22;7826;49.784;9.934;2022-09-21T10:16:20;12.90;99.90
15450;DHT22;7826;49.784;9.934;2022-09-21T10:18:52;12.80;99.90
15450;DHT22;7826;49.784;9.934;2022-09-21T10:23:57;12.80;99.90
15450;DHT22;7826;49.784;9.934;2022-09-21T10:26:31;12.80;99.90
15450;DHT22;7826;49.784;9.934;2022-09-21T10:29:01;12.70;99.90
15450;DHT22;7826;49.784;9.934;2022-09-21T10:37:32;12.90;99.90
15450;DHT22;7826;49.784;9.934;2022-09-21T10:40:00;12.80;99.90
15450;DHT22;7826;49.784;9.934;2022-09-21T10:42:34;12.80;99.90
15450;DHT22;7826;49.784;9.934;2022-09-21T10:45:22;12.80;99.90
15450;DHT22;7826;49.784;9.934;2022-09-21T10:50:35;13.00;99.90
15450;DHT22;7826;49.784;9.934;2022-09-21T10:55:56;13.20;99.90
15450;DHT22;7826;49.784;9.934;2022-09-21T10:58:23;13.20;99.90
15450;DHT22;7826;49.784;9.934;2022-09-21T11:00:51;13.20;99.90
15450;DHT22;7826;49.784;9.934;2022-09-21T11:09:06;13.10;99.90
15450;DHT22;7826;49.784;9.934;2022-09-21T11:14:50;13.30;99.90
15450;DHT22;7826;49.784;9.934;2022-09-21T11:17:48;13.30;99.90
15450;DHT22;7826;49.784;9.934;2022-09-21T11:25:44;13.40;99.90
15450;DHT22;7826;49.784;9.934;2022-09-21T11:28:43;13.40;99.90
15450;DHT22;7826;49.784;9.934;2022-09-21T11:42:23;13.80;99.90
15450;DHT22;7826;49.784;9.934;2022-09-21T11:45:01;14.00;99.90
15450;DHT22;7826;49.784;9.934;2022-09-21T11:48:22;13.90;99.90
15450;DHT22;7826;49.784;9.934;2022-09-21T11:53:48;13.90;99.90
15450;DHT22;7826;49.784;9.934;2022-09-21T12:04:59;14.10;99.90
15450;DHT22;7826;49.784;9.934;2022-09-21T12:19:05;14.40;99.90
15450;DHT22;7826;49.784;9.934;2022-09-21T12:21:45;14.50;99.90
15450;DHT22;7826;49.784;9.934;2022-09-21T12:24:19;14.60;99.90
15450;DHT22;7826;49.784;9.934;2022-09-21T12:26:53;14.70;99.90
15450;DHT22;7826;49.784;9.934;2022-09-21T12:32:14;14.70;99.90
15450;DHT22;7826;49.784;9.934;2022-09-21T12:34:48;14.70;99.90
15450;DHT22;7826;49.784;9.934;2022-09-21T12:37:28;14.70;99.90
15450;DHT22;7826;49.784;9.934;2022-09-21T12:40:17;14.70;99.90
15450;DHT22;7826;49.784;9.934;2022-09-21T12:45:53;15.00;99.90
15450;DHT22;7826;49.784;9.934;2022-09-21T12:48:29;15.10;99.90
15450;DHT22;7826;49.784;9.934;2022-09-21T12:53:46;15.30;99.90
15450;DHT22;7826;49.784;9.934;2022-09-21T13:08:12;15.40;99.90
15450;DHT22;7826;49.784;9.934;2022-09-21T13:10:47;15.70;99.90
15450;DHT22;7826;49.784;9.934;2022-09-21T13:16:06;15.60;99.90
15450;DHT22;7826;49.784;9.934;2022-09-21T13:18:54;15.60;99.90
15450;DHT22;7826;49.784;9.934;2022-09-21T13:21:26;15.60;99.90
15450;DHT22;7826;49.784;9.934;2022-09-21T13:24:02;15.60;99.90
15450;DHT22;7826;49.784;9.934;2022-09-21T13:26:33;15.60;99.90
15450;DHT22;7826;49.784;9.934;2022-09-21T13:34:32;15.60;99.90
15450;DHT22;7826;49.784;9.934;2022-09-21T13:45:00;15.50;99.90
15450;DHT22;7826;49.784;9.934;2022-09-21T13:47:30;15.60;99.90
15450;DHT22;7826;49.784;9.934;2022-09-21T13:49:59;15.60;99.90
15450;DHT22;7826;49.784;9.934;2022-09-21T13:52:37;15.60;99.90
15450;DHT22;7826;49.784;9.934;2022-09-21T13:56:00;15.70;99.90
15450;DHT22;7826;49.784;9.934;2022-09-21T13:58:03;15.80;99.90
15450;DHT22;7826;49.784;9.934;2022-09-21T14:00:36;15.90;99.90
15450;DHT22;7826;49.784;9.934;2022-09-21T14:03:24;15.80;99.90
15450;DHT22;7826;49.784;9.934;2022-09-21T14:05:54;15.90;99.90
15450;DHT22;7826;49.784;9.934;2022-09-21T14:08:31;15.90;99.90
15450;DHT22;7826;49.784;9.934;2022-09-21T14:11:03;15.90;99.90
15450;DHT22;7826;49.784;9.934;2022-09-21T14:13:36;15.90;99.90
15450;DHT22;7826;49.784;9.934;2022-09-21T14:24:42;15.90;99.90
15450;DHT22;7826;49.784;9.934;2022-09-21T14:29:52;15.90;99.90
15450;DHT22;7826;49.784;9.934;2022-09-21T14:32:22;15.90;99.90
15450;DHT22;7826;49.784;9.934;2022-09-21T14:34:53;15.90;99.90
15450;DHT22;7826;49.784;9.934;2022-09-21T14:37:34;16.00;99.90
15450;DHT22;7826;49.784;9.934;2022-09-21T14:40:20;16.10;99.90
15450;DHT22;7826;49.784;9.934;2022-09-21T14:42:50;16.20;99.90
15450;DHT22;7826;49.784;9.934;2022-09-21T14:45:18;16.30;99.90
15450;DHT22;7826;49.784;9.934;2022-09-21T14:48:29;16.30;99.90
15450;DHT22;7826;49.784;9.934;2022-09-21T14:51:12;16.20;99.90
15450;DHT22;7826;49.784;9.934;2022-09-21T15:02:11;16.20;99.90
15450;DHT22;7826;49.784;9.934;2022-09-21T15:05:14;16.20;99.90
15450;DHT22;7826;49.784;9.934;2022-09-21T15:07:48;16.10;99.90
15450;DHT22;7826;49.784;9.934;2022-09-21T15:11:15;15.90;99.90
15450;DHT22;7826;49.784;9.934;2022-09-21T15:16:31;15.90;99.90
15450;DHT22;7826;49.784;9.934;2022-09-21T15:21:41;15.60;99.90
15450;DHT22;7826;49.784;9.934;2022-09-21T15:26:47;15.30;99.90
15450;DHT22;7826;49.784;9.934;2022-09-21T15:29:23;15.20;99.90
15450;DHT22;7826;49.784;9.934;2022-09-21T15:31:51;15.20;99.90
15450;DHT22;7826;49.784;9.934;2022-09-21T15:34:17;15.10;99.90
15450;DHT22;7826;49.784;9.934;2022-09-21T15:36:44;15.00;99.90
15450;DHT22;7826;49.784;9.934;2022-09-21T15:39:28;14.90;99.90
15450;DHT22;7826;49.784;9.934;2022-09-21T15:42:14;14.90;99.90
15450;DHT22;7826;49.784;9.934;2022-09-21T15:44:46;14.90;99.90
15450;DHT22;7826;49.784;9.934;2022-09-21T15:47:20;14.90;99.90
15450;DHT22;7826;49.784;9.934;2022-09-21T15:49:47;14.90;99.90
15450;DHT22;7826;49.784;9.934;2022-09-21T15:55:10;14.90;99.90
15450;DHT22;7826;49.784;9.934;2022-09-21T15:57:39;14.90;99.90
15450;DHT22;7826;49.784;9.934;2022-09-21T16:00:18;15.00;99.90
15450;DHT22;7826;49.784;9.934;2022-09-21T16:05:48;15.00;99.90
15450;DHT22;7826;49.784;9.934;2022-09-21T16:11:15;15.00;99.90
15450;DHT22;7826;49.784;9.934;2022-09-21T16:13:43;15.00;99.90
15450;DHT22;7826;49.784;9.934;2022-09-21T16:16:29;15.00;99.90
15450;DHT22;7826;49.784;9.934;2022-09-21T16:18:56;15.00;99.90
15450;DHT22;7826;49.784;9.934;2022-09-21T16:21:30;15.00;99.90
15450;DHT22;7826;49.784;9.934;2022-09-21T16:24:28;15.00;99.90
15450;DHT22;7826;49.784;9.934;2022-09-21T16:27:00;15.00;99.90
15450;DHT22;7826;49.784;9.934;2022-09-21T16:29:38;15.00;99.90
15450;DHT22;7826;49.784;9.934;2022-09-21T16:34:45;15.00;99.90
15450;DHT22;7826;49.784;9.934;2022-09-21T16:39:56;14.90;99.90
15450;DHT22;7826;49.784;9.934;2022-09-21T16:42:24;14.90;99.90
15450;DHT22;7826;49.784;9.934;2022-09-21T16:44:58;14.80;99.90
15450;DHT22;7826;49.784;9.934;2022-09-21T16:47:26;14.80;99.90
15450;DHT22;7826;49.784;9.934;2022-09-21T16:49:55;14.70;99.90
15450;DHT22;7826;49.784;9.934;2022-09-21T16:52:23;14.70;99.90
15450;DHT22;7826;49.784;9.934;2022-09-21T16:54:50;14.60;99.90
15450;DHT22;7826;49.784;9.934;2022-09-21T16:57:17;14.60;99.90
15450;DHT22;7826;49.784;9.934;2022-09-21T16:59:43;14.50;99.90
15450;DHT22;7826;49.784;9.934;2022-09-21T17:02:10;14.50;99.90
15450;DHT22;7826;49.784;9.934;2022-09-21T17:04:39;14.40;99.90
15450;DHT22;7826;49.784;9.934;2022-09-21T17:07:05;14.40;99.90
15450;DHT22;7826;49.784;9.934;2022-09-21T17:09:36;14.30;99.90
15450;DHT22;7826;49.784;9.934;2022-09-21T17:12:08;14.20;99.90
15450;DHT22;7826;49.784;9.934;2022-09-21T17:14:36;14.10;99.90
15450;DHT22;7826;49.784;9.934;2022-09-21T17:19:42;13.70;99.90
15450;DHT22;7826;49.784;9.934;2022-09-21T17:22:12;13.50;99.90
15450;DHT22;7826;49.784;9.934;2022-09-21T17:24:51;13.40;99.90
15450;DHT22;7826;49.784;9.934;2022-09-21T17:27:22;13.20;99.90
15450;DHT22;7826;49.784;9.934;2022-09-21T17:29:49;13.10;99.90
15450;DHT22;7826;49.784;9.934;2022-09-21T17:32:18;12.90;99.90
15450;DHT22;7826;49.784;9.934;2022-09-21T17:34:46;12.80;99.90
15450;DHT22;7826;49.784;9.934;2022-09-21T17:37:12;12.70;99.90
15450;DHT22;7826;49.784;9.934;2022-09-21T17:39:39;12.50;99.90
15450;DHT22;7826;49.784;9.934;2022-09-21T17:47:50;12.20;99.90
15450;DHT22;7826;49.784;9.934;2022-09-21T17:50:24;12.00;99.90
15450;DHT22;7826;49.784;9.934;2022-09-21T17:52:52;11.90;99.90
15450;DHT22;7826;49.784;9.934;2022-09-21T17:55:39;11.80;99.90
15450;DHT22;7826;49.784;9.934;2022-09-21T18:00:59;11.50;99.90
15450;DHT22;7826;49.784;9.934;2022-09-21T18:03:28;11.40;99.90
15450;DHT22;7826;49.784;9.934;2022-09-21T18:05:56;11.30;99.90
15450;DHT22;7826;49.784;9.934;2022-09-21T18:08:26;11.20;99.90
15450;DHT22;7826;49.784;9.934;2022-09-21T18:14:14;11.00;99.90
15450;DHT22;7826;49.784;9.934;2022-09-21T18:17:13;10.90;99.90
15450;DHT22;7826;49.784;9.934;2022-09-21T18:20:03;10.80;99.90
15450;DHT22;7826;49.784;9.934;2022-09-21T18:22:52;10.70;99.90
15450;DHT22;7826;49.784;9.934;2022-09-21T18:25:33;10.70;99.90
15450;DHT22;7826;49.784;9.934;2022-09-21T18:28:10;10.60;99.90
15450;DHT22;7826;49.784;9.934;2022-09-21T18:30:41;10.50;99.90
15450;DHT22;7826;49.784;9.934;2022-09-21T18:33:22;10.40;99.90
15450;DHT22;7826;49.784;9.934;2022-09-21T18:35:54;10.40;99.90
15450;DHT22;7826;49.784;9.934;2022-09-21T18:38:39;10.30;99.90
15450;DHT22;7826;49.784;9.934;2022-09-21T18:41:16;10.30;99.90
15450;DHT22;7826;49.784;9.934;2022-09-21T18:50:02;10.20;99.90
15450;DHT22;7826;49.784;9.934;2022-09-21T18:53:06;10.10;99.90
15450;DHT22;7826;49.784;9.934;2022-09-21T18:55:35;10.10;99.90
15450;DHT22;7826;49.784;9.934;2022-09-21T18:58:02;10.00;99.90
15450;DHT22;7826;49.784;9.934;2022-09-21T19:00:30;9.90;99.90
15450;DHT22;7826;49.784;9.934;2022-09-21T19:03:02;9.90;99.90
15450;DHT22;7826;49.784;9.934;2022-09-21T19:05:30;9.80;99.90
15450;DHT22;7826;49.784;9.934;2022-09-21T19:08:09;9.80;99.90
15450;DHT22;7826;49.784;9.934;2022-09-21T19:10:52;9.60;99.90
15450;DHT22;7826;49.784;9.934;2022-09-21T19:13:44;9.60;99.90
15450;DHT22;7826;49.784;9.934;2022-09-21T19:16:35;9.50;99.90
15450;DHT22;7826;49.784;9.934;2022-09-21T19:30:06;9.10;1.00
15450;DHT22;7826;49.784;9.934;2022-09-21T19:35:30;8.90;1.00
15450;DHT22;7826;49.784;9.934;2022-09-21T19:38:01;8.90;1.00
15450;DHT22;7826;49.784;9.934;2022-09-21T19:40:30;8.80;1.00
15450;DHT22;7826;49.784;9.934;2022-09-21T19:48:42;8.70;1.00
15450;DHT22;7826;49.784;9.934;2022-09-21T19:54:00;8.60;1.00
15450;DHT22;7826;49.784;9.934;2022-09-21T19:56:48;8.60;1.00
15450;DHT22;7826;49.784;9.934;2022-09-21T19:59:33;8.60;1.00
15450;DHT22;7826;49.784;9.934;2022-09-21T20:02:21;8.60;1.00
15450;DHT22;7826;49.784;9.934;2022-09-21T20:04:56;8.50;31.20
15450;DHT22;7826;49.784;9.934;2022-09-21T20:07:53;8.50;99.90
15450;DHT22;7826;49.784;9.934;2022-09-21T20:13:20;8.50;99.90
15450;DHT22;7826;49.784;9.934;2022-09-21T20:16:07;8.50;99.90
15450;DHT22;7826;49.784;9.934;2022-09-21T20:18:46;8.40;99.90
15450;DHT22;7826;49.784;9.934;2022-09-21T20:21:15;8.40;99.90
15450;DHT22;7826;49.784;9.934;2022-09-21T20:23:44;8.30;99.90
15450;DHT22;7826;49.784;9.934;2022-09-21T20:26:26;8.30;99.90
15450;DHT22;7826;49.784;9.934;2022-09-21T20:28:53;8.20;99.90
15450;DHT22;7826;49.784;9.934;2022-09-21T20:31:21;8.20;99.90
15450;DHT22;7826;49.784;9.934;2022-09-21T20:33:48;8.10;99.90
15450;DHT22;7826;49.784;9.934;2022-09-21T20:36:15;8.10;99.90
15450;DHT22;7826;49.784;9.934;2022-09-21T20:38:42;8.10;1.00
15450;DHT22;7826;49.784;9.934;2022-09-21T20:41:10;8.10;1.00
15450;DHT22;7826;49.784;9.934;2022-09-21T20:43:37;8.10;1.00
15450;DHT22;7826;49.784;9.934;2022-09-21T20:46:04;8.00;1.00
15450;DHT22;7826;49.784;9.934;2022-09-21T20:48:30;8.00;1.00
15450;DHT22;7826;49.784;9.934;2022-09-21T20:51:00;7.90;1.00
15450;DHT22;7826;49.784;9.934;2022-09-21T20:53:26;7.90;1.00
15450;DHT22;7826;49.784;9.934;2022-09-21T20:55:54;7.90;1.00
15450;DHT22;7826;49.784;9.934;2022-09-21T20:58:21;7.90;57.50
15450;DHT22;7826;49.784;9.934;2022-09-21T21:00:47;7.80;1.00